sensor_id;sensor_type;location;lat;lon;timestamp;P1;durP1;ratioP1;P2;durP2;ratioP2
75914;SDS011;64593;51.050;13.780;2023-04-24T06:05:18;2.05;;;1.00;;
75914;SDS011;64593;51.050;13.780;2023-04-24T06:10:27;2.30;;;0.90;;
75914;SDS011;64593;51.050;13.780;2023-04-24T06:15:31;1.52;;;0.85;;
75914;SDS011;64593;51.050;13.780;2023-04-24T06:20:41;3.05;;;0.93;;
75914;SDS011;64593;51.050;13.780;2023-04-24T06:25:45;1.55;;;0.70;;
75914;SDS011;64593;51.050;13.780;2023-04-24T06:30:46;1.52;;;0.65;;
75914;SDS011;64593;51.050;13.780;2023-04-24T06:35:51;1.10;;;0.60;;
75914;SDS011;64593;51.050;13.780;2023-04-24T06:45:58;1.20;;;0.40;;
75914;SDS011;64593;51.050;13.780;2023-04-24T06:56:02;1.15;;;0.32;;
75914;SDS011;64593;51.050;13.780;2023-04-24T07:01:09;1.65;;;0.55;;
75914;SDS011;64593;51.050;13.780;2023-04-24T07:06:13;0.88;;;0.30;;
75914;SDS011;64593;51.050;13.780;2023-04-24T07:11:17;1.48;;;0.30;;
75914;SDS011;64593;51.050;13.780;2023-04-24T07:16:22;0.63;;;0.20;;
75914;SDS011;64593;51.050;13.780;2023-04-24T07:21:29;1.77;;;0.40;;
75914;SDS011;64593;51.050;13.780;2023-04-24T07:26:37;3.40;;;0.43;;
75914;SDS011;64593;51.050;13.780;2023-04-24T07:31:44;2.90;;;0.38;;
75914;SDS011;64593;51.050;13.780;2023-04-24T07:36:48;2.15;;;0.52;;
75914;SDS011;64593;51.050;13.780;2023-04-24T07:41:55;0.88;;;0.20;;
75914;SDS011;64593;51.050;13.780;2023-04-24T07:46:58;2.58;;;0.60;;
75914;SDS011;64593;51.050;13.780;2023-04-24T07:52:06;2.03;;;0.47;;
75914;SDS011;64593;51.050;13.780;2023-04-24T07:57:14;2.65;;;0.60;;
75914;SDS011;64593;51.050;13.780;2023-04-24T08:02:20;2.63;;;0.60;;
75914;SDS011;64593;51.050;13.780;2023-04-24T08:07:27;2.75;;;0.32;;
75914;SDS011;64593;51.050;13.780;2023-04-24T08:12:54;6.45;;;0.50;;
75914;SDS011;64593;51.050;13.780;2023-04-24T08:18:01;4.28;;;0.47;;
75914;SDS011;64593;51.050;13.780;2023-04-24T08:23:05;1.73;;;0.25;;
75914;SDS011;64593;51.050;13.780;2023-04-24T08:28:08;0.85;;;0.32;;
75914;SDS011;64593;51.050;13.780;2023-04-24T08:33:11;2.40;;;0.50;;
75914;SDS011;64593;51.050;13.780;2023-04-24T08:38:37;1.48;;;0.40;;
75914;SDS011;64593;51.050;13.780;2023-04-24T08:43:41;3.25;;;0.73;;
75914;SDS011;64593;51.050;13.780;2023-04-24T08:48:43;1.73;;;0.30;;
75914;SDS011;64593;51.050;13.780;2023-04-24T08:53:48;0.65;;;0.20;;
75914;SDS011;64593;51.050;13.780;2023-04-24T08:59:17;1.63;;;0.28;;
75914;SDS011;64593;51.050;13.780;2023-04-24T09:04:27;2.97;;;0.70;;
75914;SDS011;64593;51.050;13.780;2023-04-24T09:09:35;3.28;;;0.50;;
75914;SDS011;64593;51.050;13.780;2023-04-24T09:14:39;1.40;;;0.47;;
75914;SDS011;64593;51.050;13.780;2023-04-24T09:19:44;1.00;;;0.30;;
75914;SDS011;64593;51.050;13.780;2023-04-24T09:25:11;3.00;;;0.32;;
75914;SDS011;64593;51.050;13.780;2023-04-24T09:30:14;1.48;;;0.30;;
75914;SDS011;64593;51.050;13.780;2023-04-24T09:35:23;0.90;;;0.20;;
75914;SDS011;64593;51.050;13.780;2023-04-24T09:40:25;5.20;;;0.35;;
75914;SDS011;64593;51.050;13.780;2023-04-24T09:45:53;1.27;;;0.30;;
75914;SDS011;64593;51.050;13.780;2023-04-24T09:51:36;1.27;;;0.30;;
75914;SDS011;64593;51.050;13.780;2023-04-24T09:57:05;1.80;;;0.50;;
75914;SDS011;64593;51.050;13.780;2023-04-24T10:02:18;0.93;;;0.28;;
75914;SDS011;64593;51.050;13.780;2023-04-24T10:07:21;1.42;;;0.20;;
75914;SDS011;64593;51.050;13.780;2023-04-24T10:12:23;3.80;;;0.63;;
75914;SDS011;64593;51.050;13.780;2023-04-24T10:17:53;2.13;;;0.30;;
75914;SDS011;64593;51.050;13.780;2023-04-24T10:22:56;0.73;;;0.20;;
75914;SDS011;64593;51.050;13.780;2023-04-24T10:28:00;2.25;;;0.40;;
75914;SDS011;64593;51.050;13.780;2023-04-24T10:33:07;2.58;;;0.20;;
75914;SDS011;64593;51.050;13.780;2023-04-24T10:38:11;1.88;;;0.20;;
75914;SDS011;64593;51.050;13.780;2023-04-24T10:43:20;0.85;;;0.20;;
75914;SDS011;64593;51.050;13.780;2023-04-24T10:48:25;1.02;;;0.20;;
75914;SDS011;64593;51.050;13.780;2023-04-24T10:53:28;1.33;;;0.25;;
75914;SDS011;64593;51.050;13.780;2023-04-24T10:58:56;0.65;;;0.10;;
75914;SDS011;64593;51.050;13.780;2023-04-24T11:04:02;0.80;;;0.25;;
75914;SDS011;64593;51.050;13.780;2023-04-24T11:09:30;1.45;;;0.38;;
75914;SDS011;64593;51.050;13.780;2023-04-24T11:20:02;2.50;;;0.40;;
75914;SDS011;64593;51.050;13.780;2023-04-24T11:25:44;1.42;;;0.30;;
75914;SDS011;64593;51.050;13.780;2023-04-24T11:37:03;3.25;;;0.68;;
75914;SDS011;64593;51.050;13.780;2023-04-24T11:42:49;1.52;;;0.28;;
75914;SDS011;64593;51.050;13.780;2023-04-24T11:47:52;2.20;;;0.70;;
75914;SDS011;64593;51.050;13.780;2023-04-24T11:52:54;1.17;;;0.40;;
75914;SDS011;64593;51.050;13.780;2023-04-24T11:57:57;3.00;;;0.50;;
75914;SDS011;64593;51.050;13.780;2023-04-24T12:03:04;4.90;;;0.80;;
75914;SDS011;64593;51.050;13.780;2023-04-24T12:08:33;3.45;;;0.55;;
75914;SDS011;64593;51.050;13.780;2023-04-24T12:14:10;1.50;;;0.40;;
75914;SDS011;64593;51.050;13.780;2023-04-24T12:19:37;2.20;;;0.50;;
75914;SDS011;64593;51.050;13.780;2023-04-24T12:24:58;1.33;;;0.47;;
75914;SDS011;64593;51.050;13.780;2023-04-24T12:30:04;1.67;;;0.47;;
75914;SDS011;64593;51.050;13.780;2023-04-24T12:40:35;2.28;;;0.43;;
75914;SDS011;64593;51.050;13.780;2023-04-24T12:45:39;2.35;;;0.75;;
75914;SDS011;64593;51.050;13.780;2023-04-24T12:51:06;2.63;;;0.55;;
75914;SDS011;64593;51.050;13.780;2023-04-24T12:56:08;2.08;;;0.60;;
75914;SDS011;64593;51.050;13.780;2023-04-24T13:01:09;3.33;;;0.50;;
75914;SDS011;64593;51.050;13.780;2023-04-24T13:06:11;0.88;;;0.40;;
75914;SDS011;64593;51.050;13.780;2023-04-24T13:11:13;2.08;;;0.70;;
75914;SDS011;64593;51.050;13.780;2023-04-24T13:16:17;1.23;;;0.50;;
75914;SDS011;64593;51.050;13.780;2023-04-24T13:21:19;2.15;;;0.50;;
75914;SDS011;64593;51.050;13.780;2023-04-24T13:26:20;8.32;;;0.40;;
75914;SDS011;64593;51.050;13.780;2023-04-24T13:31:24;3.28;;;0.30;;
75914;SDS011;64593;51.050;13.780;2023-04-24T13:36:52;5.72;;;0.60;;
75914;SDS011;64593;51.050;13.780;2023-04-24T13:42:20;2.55;;;0.50;;
75914;SDS011;64593;51.050;13.780;2023-04-24T13:47:47;1.05;;;0.40;;
75914;SDS011;64593;51.050;13.780;2023-04-24T13:52:51;2.92;;;0.47;;
75914;SDS011;64593;51.050;13.780;2023-04-24T13:58:18;0.80;;;0.30;;
75914;SDS011;64593;51.050;13.780;2023-04-24T14:03:19;3.60;;;1.20;;
75914;SDS011;64593;51.050;13.780;2023-04-24T14:08:21;5.63;;;0.57;;
75914;SDS011;64593;51.050;13.780;2023-04-24T14:13:48;1.75;;;0.40;;
75914;SDS011;64593;51.050;13.780;2023-04-24T14:19:15;1.20;;;0.30;;
75914;SDS011;64593;51.050;13.780;2023-04-24T14:24:17;1.30;;;0.50;;
75914;SDS011;64593;51.050;13.780;2023-04-24T14:29:44;0.90;;;0.50;;
75914;SDS011;64593;51.050;13.780;2023-04-24T14:34:46;1.30;;;0.30;;
75914;SDS011;64593;51.050;13.780;2023-04-24T14:40:13;2.45;;;0.68;;
75914;SDS011;64593;51.050;13.780;2023-04-24T14:46:00;4.30;;;0.80;;
75914;SDS011;64593;51.050;13.780;2023-04-24T14:51:27;1.95;;;0.50;;
75914;SDS011;64593;51.050;13.780;2023-04-24T14:56:54;6.88;;;0.80;;
75914;SDS011;64593;51.050;13.780;2023-04-24T15:02:23;2.92;;;0.65;;
75914;SDS011;64593;51.050;13.780;2023-04-24T15:07:26;2.35;;;0.70;;
75914;SDS011;64593;51.050;13.780;2023-04-24T15:12:53;1.33;;;0.55;;
75914;SDS011;64593;51.050;13.780;2023-04-24T15:18:20;4.60;;;0.60;;
75914;SDS011;64593;51.050;13.780;2023-04-24T15:23:47;1.98;;;0.32;;
75914;SDS011;64593;51.050;13.780;2023-04-24T15:29:16;1.33;;;0.35;;
75914;SDS011;64593;51.050;13.780;2023-04-24T15:34:18;0.82;;;0.30;;
75914;SDS011;64593;51.050;13.780;2023-04-24T15:39:44;1.13;;;0.50;;
75914;SDS011;64593;51.050;13.780;2023-04-24T15:45:11;0.90;;;0.40;;
75914;SDS011;64593;51.050;13.780;2023-04-24T15:50:13;7.05;;;0.70;;
75914;SDS011;64593;51.050;13.780;2023-04-24T15:55:17;3.10;;;0.73;;
75914;SDS011;64593;51.050;13.780;2023-04-24T16:00:19;4.43;;;0.43;;
75914;SDS011;64593;51.050;13.780;2023-04-24T16:05:46;2.40;;;0.60;;
75914;SDS011;64593;51.050;13.780;2023-04-24T16:10:48;3.28;;;0.60;;
75914;SDS011;64593;51.050;13.780;2023-04-24T16:16:15;4.03;;;0.60;;
75914;SDS011;64593;51.050;13.780;2023-04-24T16:21:17;3.17;;;0.88;;
75914;SDS011;64593;51.050;13.780;2023-04-24T16:26:20;1.92;;;0.60;;
75914;SDS011;64593;51.050;13.780;2023-04-24T16:31:47;2.60;;;0.80;;
75914;SDS011;64593;51.050;13.780;2023-04-24T16:37:14;2.58;;;0.70;;
75914;SDS011;64593;51.050;13.780;2023-04-24T16:42:16;2.17;;;0.70;;
75914;SDS011;64593;51.050;13.780;2023-04-24T16:47:20;0.77;;;0.38;;
75914;SDS011;64593;51.050;13.780;2023-04-24T16:52:28;1.50;;;0.60;;
75914;SDS011;64593;51.050;13.780;2023-04-24T16:57:55;3.17;;;0.50;;
75914;SDS011;64593;51.050;13.780;2023-04-24T17:03:22;1.13;;;0.47;;
75914;SDS011;64593;51.050;13.780;2023-04-24T17:08:24;0.60;;;0.40;;
75914;SDS011;64593;51.050;13.780;2023-04-24T17:13:26;2.17;;;0.50;;
75914;SDS011;64593;51.050;13.780;2023-04-24T17:18:53;3.80;;;0.50;;
75914;SDS011;64593;51.050;13.780;2023-04-24T17:24:20;1.75;;;0.50;;
75914;SDS011;64593;51.050;13.780;2023-04-24T17:29:24;1.27;;;0.50;;
75914;SDS011;64593;51.050;13.780;2023-04-24T17:34:50;2.13;;;0.40;;
75914;SDS011;64593;51.050;13.780;2023-04-24T17:39:51;3.40;;;0.40;;
75914;SDS011;64593;51.050;13.780;2023-04-24T17:44:53;5.65;;;0.57;;
75914;SDS011;64593;51.050;13.780;2023-04-24T17:49:55;0.75;;;0.30;;
75914;SDS011;64593;51.050;13.780;2023-04-24T17:55:22;1.92;;;0.65;;
75914;SDS011;64593;51.050;13.780;2023-04-24T18:00:24;1.00;;;0.20;;
75914;SDS011;64593;51.050;13.780;2023-04-24T18:05:26;1.33;;;0.30;;
75914;SDS011;64593;51.050;13.780;2023-04-24T18:10:29;2.13;;;0.22;;
75914;SDS011;64593;51.050;13.780;2023-04-24T18:15:32;2.58;;;0.30;;
75914;SDS011;64593;51.050;13.780;2023-04-24T18:21:00;0.80;;;0.20;;
75914;SDS011;64593;51.050;13.780;2023-04-24T18:26:08;2.30;;;0.10;;
75914;SDS011;64593;51.050;13.780;2023-04-24T18:31:13;3.83;;;0.30;;
75914;SDS011;64593;51.050;13.780;2023-04-24T18:36:15;3.65;;;0.30;;
75914;SDS011;64593;51.050;13.780;2023-04-24T18:41:19;4.95;;;0.40;;
75914;SDS011;64593;51.050;13.780;2023-04-24T18:46:46;3.17;;;0.30;;
75914;SDS011;64593;51.050;13.780;2023-04-24T18:52:16;1.40;;;0.30;;
75914;SDS011;64593;51.050;13.780;2023-04-24T18:57:18;1.05;;;0.30;;
75914;SDS011;64593;51.050;13.780;2023-04-24T19:02:45;0.93;;;0.30;;
75914;SDS011;64593;51.050;13.780;2023-04-24T19:08:12;3.35;;;0.15;;
75914;SDS011;64593;51.050;13.780;2023-04-24T19:13:39;0.70;;;0.30;;
75914;SDS011;64593;51.050;13.780;2023-04-24T19:19:06;2.35;;;0.20;;
75914;SDS011;64593;51.050;13.780;2023-04-24T19:24:33;0.60;;;0.30;;
75914;SDS011;64593;51.050;13.780;2023-04-24T19:29:35;1.40;;;0.55;;
75914;SDS011;64593;51.050;13.780;2023-04-24T19:34:41;0.63;;;0.22;;
75914;SDS011;64593;51.050;13.780;2023-04-24T19:39:43;1.00;;;0.38;;
75914;SDS011;64593;51.050;13.780;2023-04-24T19:45:13;1.08;;;0.45;;
75914;SDS011;64593;51.050;13.780;2023-04-24T19:50:15;0.85;;;0.45;;
75914;SDS011;64593;51.050;13.780;2023-04-24T19:55:45;2.17;;;0.40;;
75914;SDS011;64593;51.050;13.780;2023-04-24T20:01:12;0.75;;;0.40;;
75914;SDS011;64593;51.050;13.780;2023-04-24T20:06:39;1.00;;;0.52;;
75914;SDS011;64593;51.050;13.780;2023-04-24T20:11:41;1.08;;;0.55;;
75914;SDS011;64593;51.050;13.780;2023-04-24T20:16:45;0.90;;;0.50;;
75914;SDS011;64593;51.050;13.780;2023-04-24T20:22:12;4.78;;;0.90;;
75914;SDS011;64593;51.050;13.780;2023-04-24T20:27:14;1.58;;;0.60;;
75914;SDS011;64593;51.050;13.780;2023-04-24T20:32:42;1.80;;;0.75;;
75914;SDS011;64593;51.050;13.780;2023-04-24T20:37:48;1.88;;;0.80;;
75914;SDS011;64593;51.050;13.780;2023-04-24T20:42:51;1.88;;;1.00;;
75914;SDS011;64593;51.050;13.780;2023-04-24T20:48:18;2.38;;;1.02;;
75914;SDS011;64593;51.050;13.780;2023-04-24T20:53:20;3.40;;;1.10;;
75914;SDS011;64593;51.050;13.780;2023-04-24T20:58:47;3.92;;;1.10;;
75914;SDS011;64593;51.050;13.780;2023-04-24T21:03:49;2.45;;;1.30;;
75914;SDS011;64593;51.050;13.780;2023-04-24T21:09:17;7.45;;;1.48;;
75914;SDS011;64593;51.050;13.780;2023-04-24T21:14:19;2.33;;;1.23;;
75914;SDS011;64593;51.050;13.780;2023-04-24T21:19:21;3.47;;;1.40;;
75914;SDS011;64593;51.050;13.780;2023-04-24T21:24:47;3.90;;;1.10;;
75914;SDS011;64593;51.050;13.780;2023-04-24T21:29:48;5.13;;;1.20;;
75914;SDS011;64593;51.050;13.780;2023-04-24T21:34:51;2.13;;;1.10;;
75914;SDS011;64593;51.050;13.780;2023-04-24T21:40:19;3.08;;;1.40;;
75914;SDS011;64593;51.050;13.780;2023-04-24T21:45:23;3.83;;;1.73;;
75914;SDS011;64593;51.050;13.780;2023-04-24T21:50:25;2.88;;;1.17;;
75914;SDS011;64593;51.050;13.780;2023-04-24T21:55:27;3.38;;;1.77;;
